Time;durP1;ratioP1;P1;durP2;ratioP2;P2;SDS_P1;SDS_P2;PMS_P1;PMS_P2;Temp;Humidity;BMP_temperature;BMP_pressure;BME280_temperature;BME280_humidity;BME280_pressure;Samples;Min_cycle;Max_cycle;Signal;HPM_P1;HPM_P2
2021/03/27 00:01:04;;;;;;;51.97;30.87;;;;;;;5.96;54.66;100589.40;115524;1198;103081;-79
2021/03/27 00:03:37;;;;;;;57.57;31.33;;;;;;;5.95;54.88;100579.92;115469;1199;103133;-79
2021/03/27 00:06:14;;;;;;;53.77;31.50;;;;;;;5.95;54.83;100595.45;115417;1199;103108;-79
2021/03/27 00:09:05;;;;;;;49.80;30.30;;;;;;;5.96;54.83;100575.59;115617;1199;102832;-80
2021/03/27 00:11:42;;;;;;;52.60;31.67;;;;;;;5.97;54.72;100580.76;115832;1198;103069;-81
2021/03/27 00:14:15;;;;;;;49.50;29.40;;;;;;;5.97;54.74;100572.99;115581;1198;103581;-80
2021/03/27 00:16:56;;;;;;;56.80;31.05;;;;;;;5.97;54.46;100572.99;115711;1196;103126;-79
2021/03/27 00:19:44;;;;;;;52.00;30.73;;;;;;;5.97;54.36;100575.58;115727;1196;104117;-79
2021/03/27 00:22:21;;;;;;;50.53;29.93;;;;;;;5.96;54.37;100583.36;115461;1196;102989;-79
2021/03/27 00:25:21;;;;;;;50.87;30.60;;;;;;;5.94;54.73;100573.02;115595;1197;104474;-80
2021/03/27 00:27:48;;;;;;;54.10;30.20;;;;;;;5.92;54.76;100572.15;115559;1199;103127;-79
2021/03/27 00:30:22;;;;;;;53.80;30.37;;;;;;;5.92;54.57;100584.23;115614;1199;103124;-79
2021/03/27 00:32:52;;;;;;;49.93;29.93;;;;;;;5.91;54.61;100565.25;115653;1199;103050;-79
2021/03/27 00:35:43;;;;;;;52.63;29.43;;;;;;;5.91;54.22;100556.63;115503;1199;103072;-80
2021/03/27 00:38:19;;;;;;;50.87;29.63;;;;;;;5.90;54.62;100570.45;115565;1196;102992;-79
2021/03/27 00:40:49;;;;;;;52.53;29.47;;;;;;;5.89;54.76;100553.16;115828;1198;103120;-80
2021/03/27 00:43:19;;;;;;;50.35;28.40;;;;;;;5.89;54.71;100542.81;115634;1196;103030;-79
2021/03/27 00:45:52;;;;;;;53.43;30.07;;;;;;;5.89;54.56;100555.75;115636;1196;103073;-79
2021/03/27 00:48:28;;;;;;;48.77;29.43;;;;;;;5.90;54.67;100557.50;115423;1196;103088;-80
2021/03/27 00:51:04;;;;;;;54.77;30.60;;;;;;;5.90;54.63;100544.56;115563;1199;101854;-80
2021/03/27 00:53:54;;;;;;;55.27;30.17;;;;;;;5.90;54.57;100540.23;115545;1199;103124;-79
2021/03/27 00:56:46;;;;;;;51.07;29.10;;;;;;;5.89;54.44;100541.08;115638;1199;102999;-80
2021/03/27 00:59:30;;;;;;;52.00;29.43;;;;;;;5.91;54.64;100544.55;115520;1199;103159;-80
2021/03/27 01:02:12;;;;;;;48.17;29.30;;;;;;;5.93;54.61;100545.42;115558;1196;103012;-80
2021/03/27 01:05:03;;;;;;;50.37;29.17;;;;;;;5.96;54.32;100539.35;115698;1199;103025;-80
2021/03/27 01:07:51;;;;;;;51.17;30.03;;;;;;;5.98;54.24;100542.78;115656;1196;104068;-80
2021/03/27 01:11:01;;;;;;;48.00;28.55;;;;;;;5.99;54.22;100539.32;115408;1200;103043;-80
2021/03/27 01:13:44;;;;;;;54.57;29.57;;;;;;;6.01;54.47;100545.34;115527;1198;102996;-79
2021/03/27 01:16:20;;;;;;;50.35;28.55;;;;;;;6.02;54.25;100534.11;115540;1200;103171;-80
2021/03/27 01:18:56;;;;;;;52.07;29.33;;;;;;;6.05;54.37;100516.81;115801;1196;103008;-80
2021/03/27 01:21:29;;;;;;;49.60;28.20;;;;;;;6.08;54.67;100512.47;115433;1199;104270;-80
2021/03/27 01:24:02;;;;;;;52.97;29.00;;;;;;;6.11;54.76;100507.29;115456;1196;103198;-80
2021/03/27 01:26:46;;;;;;;46.43;27.53;;;;;;;6.18;54.62;100514.11;115410;1196;103093;-80
2021/03/27 01:29:24;;;;;;;45.40;27.40;;;;;;;6.20;55.23;100512.36;115384;1199;102986;-79
2021/03/27 01:32:04;;;;;;;52.27;28.17;;;;;;;6.23;55.50;100520.09;115408;1199;103068;-80
2021/03/27 01:34:57;;;;;;;44.20;26.73;;;;;;;6.22;55.74;100500.25;115465;1198;103059;-80
2021/03/27 01:37:34;;;;;;;47.90;27.03;;;;;;;6.21;55.34;100514.08;115519;1199;103047;-81
2021/03/27 01:40:13;;;;;;;48.78;29.08;;;;;;;6.21;55.57;100511.48;115445;1197;103070;-80
2021/03/27 01:42:40;;;;;;;46.07;28.00;;;;;;;6.22;55.72;100505.43;115533;1199;102976;-80
2021/03/27 01:45:26;;;;;;;49.40;28.73;;;;;;;6.22;55.71;100511.47;115759;1196;103002;-79
2021/03/27 01:48:13;;;;;;;45.80;27.63;;;;;;;6.23;55.47;100510.59;115601;1196;103108;-80
2021/03/27 01:50:48;;;;;;;51.10;29.40;;;;;;;6.22;55.84;100510.61;115781;1196;103063;-80
2021/03/27 01:53:33;;;;;;;47.93;28.10;;;;;;;6.22;56.14;100500.25;115567;1196;103002;-80
2021/03/27 01:56:14;;;;;;;47.27;28.23;;;;;;;6.21;55.88;100489.03;115511;1198;103293;-80
2021/03/27 01:59:06;;;;;;;52.03;29.53;;;;;;;6.21;56.24;100477.81;115651;1196;102993;-79
2021/03/27 02:01:55;;;;;;;45.93;27.80;;;;;;;6.21;56.02;100488.17;115346;1196;103114;-79
2021/03/27 02:04:37;;;;;;;47.43;28.07;;;;;;;6.20;56.11;100486.46;115481;1196;104652;-80
2021/03/27 02:07:16;;;;;;;49.43;28.23;;;;;;;6.18;56.37;100473.53;115438;1199;103034;-79
2021/03/27 02:09:55;;;;;;;47.73;28.67;;;;;;;6.16;56.60;100479.61;115389;1199;102868;-79
2021/03/27 02:12:50;;;;;;;49.70;29.67;;;;;;;6.10;56.64;100498.63;115482;1199;102992;-79
2021/03/27 02:15:38;;;;;;;50.37;30.07;;;;;;;6.06;56.95;100477.09;115558;1196;102983;-79
2021/03/27 02:18:14;;;;;;;46.80;27.27;;;;;;;6.03;57.11;100471.09;115582;1199;103053;-79
2021/03/27 02:21:13;;;;;;;51.03;29.37;;;;;;;6.00;57.86;100490.11;115520;1199;103175;-79
2021/03/27 02:24:01;;;;;;;;;;;;;;;5.95;57.90;100486.72;115397;1205;103127;-79
2021/03/27 02:26:47;;;;;;;51.73;29.18;;;;;;;5.91;57.89;100473.79;115575;1198;103437;-79
2021/03/27 02:29:32;;;;;;;50.83;29.93;;;;;;;5.91;57.78;100484.15;115719;1197;103076;-79
2021/03/27 02:32:11;;;;;;;55.57;30.37;;;;;;;5.88;58.07;100479.83;115587;1196;102988;-79
2021/03/27 02:34:53;;;;;;;52.70;30.00;;;;;;;5.87;58.44;100488.47;115777;1199;103103;-79
2021/03/27 02:37:38;;;;;;;55.17;31.83;;;;;;;5.87;58.24;100483.29;115347;1198;102828;-80
2021/03/27 02:40:20;;;;;;;53.13;32.23;;;;;;;5.85;58.58;100472.09;115389;1198;103114;-79
2021/03/27 02:43:00;;;;;;;57.10;32.65;;;;;;;5.83;58.97;100466.08;115386;1200;103140;-81
2021/03/27 02:45:57;;;;;;;54.63;32.30;;;;;;;5.86;58.58;100466.05;115563;1198;103039;-80
2021/03/27 02:48:41;;;;;;;57.93;32.80;;;;;;;5.86;59.32;100478.98;115533;1199;101713;-81
2021/03/27 02:51:34;;;;;;;65.57;35.70;;;;;;;5.87;58.96;100480.70;115568;1199;103060;-79
2021/03/27 02:54:30;;;;;;;64.10;35.40;;;;;;;5.84;59.24;100488.50;115419;1198;103114;-80
2021/03/27 02:57:07;;;;;;;66.73;37.80;;;;;;;5.84;59.31;100479.88;115428;1196;103040;-79
2021/03/27 03:00:05;;;;;;;67.90;37.33;;;;;;;5.82;59.06;100466.95;115478;1197;103056;-78
2021/03/27 03:02:51;;;;;;;62.07;37.00;;;;;;;5.81;59.71;100472.14;115438;1196;103073;-79
2021/03/27 03:05:37;;;;;;;67.33;38.07;;;;;;;5.76;59.43;100460.11;115616;1198;102999;-79
2021/03/27 03:08:23;;;;;;;68.10;39.03;;;;;;;5.76;59.64;100459.26;115405;1199;103073;-78
2021/03/27 03:11:15;;;;;;;70.15;39.10;;;;;;;5.75;59.74;100462.72;115487;1196;103052;-79
2021/03/27 03:14:00;;;;;;;69.80;39.45;;;;;;;5.74;59.85;100458.38;115468;1199;103622;-79
2021/03/27 03:16:45;;;;;;;71.07;40.33;;;;;;;5.73;59.68;100449.77;115534;1196;103009;-80
2021/03/27 03:19:21;;;;;;;69.63;39.50;;;;;;;5.73;59.83;100459.26;115503;1200;102860;-80
2021/03/27 03:22:19;;;;;;;73.87;39.93;;;;;;;5.74;59.91;100471.33;115508;1197;103004;-79
2021/03/27 03:25:05;;;;;;;74.65;41.03;;;;;;;5.74;59.71;100461.86;115537;1196;103197;-79
2021/03/27 03:28:05;;;;;;;75.27;39.83;;;;;;;5.74;59.36;100450.62;115531;1196;103028;-79
2021/03/27 03:30:43;;;;;;;77.50;41.57;;;;;;;5.75;59.69;100452.37;115603;1196;103059;-79
2021/03/27 03:33:18;;;;;;;77.87;41.73;;;;;;;5.77;59.98;100453.20;115592;1199;103002;-79
2021/03/27 03:36:13;;;;;;;72.57;40.10;;;;;;;5.79;59.24;100441.11;115673;1198;104235;-80
2021/03/27 03:38:48;;;;;;;74.67;42.00;;;;;;;5.82;59.31;100435.03;115553;1197;103034;-80
2021/03/27 03:41:42;;;;;;;72.93;41.27;;;;;;;5.82;59.36;100428.13;115560;1196;103018;-80
2021/03/27 03:44:28;;;;;;;76.83;42.57;;;;;;;5.83;59.21;100424.67;115832;1196;103107;-80
2021/03/27 03:47:32;;;;;;;74.23;41.77;;;;;;;5.84;59.25;100425.52;115773;1196;103191;-80
2021/03/27 03:50:48;;;;;;;76.40;42.10;;;;;;;5.85;59.24;100424.64;115774;1196;102838;-80
2021/03/27 03:53:24;;;;;;;80.25;42.30;;;;;;;5.86;59.12;100429.80;115512;1197;103052;-79
2021/03/27 03:56:06;;;;;;;75.93;43.85;;;;;;;5.86;59.28;100419.45;115486;1197;102986;-79
2021/03/27 03:58:52;;;;;;;78.17;42.03;;;;;;;5.87;58.87;100426.34;115726;1196;102999;-80
2021/03/27 04:01:25;;;;;;;80.93;43.07;;;;;;;5.88;58.73;100422.88;115644;1196;103006;-79
2021/03/27 04:04:11;;;;;;;77.07;42.97;;;;;;;5.90;58.71;100403.04;115703;1197;103127;-79
2021/03/27 04:06:41;;;;;;;74.70;40.93;;;;;;;5.92;58.33;100403.02;115481;1199;102998;-79
2021/03/27 04:09:21;;;;;;;75.53;43.10;;;;;;;5.93;58.39;100422.89;115493;1199;103050;-79
2021/03/27 04:11:57;;;;;;;77.20;44.40;;;;;;;5.94;58.36;100396.98;115455;1200;103062;-79
2021/03/27 04:14:49;;;;;;;80.20;42.77;;;;;;;5.97;58.24;100390.91;115511;1200;101992;-80
2021/03/27 04:17:34;;;;;;;76.13;42.53;;;;;;;5.99;58.41;100405.55;115728;1198;103201;-79
2021/03/27 04:20:16;;;;;;;73.67;42.43;;;;;;;6.04;58.18;100383.05;115641;1199;103577;-80
2021/03/27 04:22:55;;;;;;;77.83;44.37;;;;;;;6.09;57.81;100397.66;115533;1199;102977;-78
2021/03/27 04:25:57;;;;;;;75.80;43.07;;;;;;;6.11;57.65;100401.98;115501;1199;103101;-79
2021/03/27 04:28:48;;;;;;;77.53;45.07;;;;;;;6.13;57.43;100415.77;115290;1200;102832;-79
2021/03/27 04:31:19;;;;;;;78.63;44.63;;;;;;;6.13;57.47;100407.13;115182;1200;103149;-80
2021/03/27 04:34:15;;;;;;;77.53;44.23;;;;;;;6.13;57.60;100407.99;115275;1200;102851;-79
2021/03/27 04:37:13;;;;;;;82.97;44.57;;;;;;;6.12;57.77;100416.64;115104;1199;103246;-78
2021/03/27 04:39:55;;;;;;;;;;;;;;;6.12;57.75;100428.73;115127;1207;102977;-79
2021/03/27 04:42:41;;;;;;;84.80;47.10;;;;;;;6.10;58.03;100428.72;115256;1200;103254;-79
2021/03/27 04:45:44;;;;;;;86.07;47.17;;;;;;;6.11;58.20;100427.88;115297;1200;102995;-80
2021/03/27 04:48:23;;;;;;;85.93;47.07;;;;;;;6.13;58.10;100430.44;115478;1198;103270;-80
2021/03/27 04:51:19;;;;;;;87.87;49.27;;;;;;;6.18;57.84;100421.73;115483;1200;102352;-80
2021/03/27 04:54:06;;;;;;;85.77;49.17;;;;;;;6.27;57.92;100423.34;115292;1200;103052;-81
2021/03/27 04:56:36;;;;;;;89.40;48.80;;;;;;;6.44;57.97;100417.96;115089;1202;103192;-80
2021/03/27 05:00:03;;;;;;;86.03;49.00;;;;;;;6.59;57.44;100412.59;115111;1202;103146;-80
2021/03/27 05:02:39;;;;;;;89.60;49.70;;;;;;;6.88;57.19;100412.20;115129;1203;103094;-80
2021/03/27 05:05:15;;;;;;;86.10;50.40;;;;;;;7.13;56.25;100413.53;115170;1200;103047;-81
2021/03/27 05:08:11;;;;;;;87.25;51.00;;;;;;;7.27;55.58;100408.99;115340;1200;102754;-79
2021/03/27 05:11:09;;;;;;;85.00;48.67;;;;;;;7.51;55.59;100392.15;115366;1199;103140;-79
2021/03/27 05:13:44;;;;;;;84.20;49.60;;;;;;;7.41;55.14;100407.92;115411;1200;103025;-80
2021/03/27 05:16:25;;;;;;;92.87;50.63;;;;;;;7.67;55.19;100405.72;115333;1199;102932;-80
2021/03/27 05:19:11;;;;;;;85.25;50.40;;;;;;;7.58;55.04;100411.09;115500;1200;103110;-80
2021/03/27 05:21:38;;;;;;;86.90;50.73;;;;;;;7.45;55.24;100410.43;115160;1203;103006;-80
2021/03/27 05:24:08;;;;;;;88.50;51.80;;;;;;;7.52;55.20;100400.79;115357;1200;103088;-80
2021/03/27 05:26:55;;;;;;;88.60;50.77;;;;;;;7.32;55.28;100382.11;115376;1202;103120;-80
2021/03/27 05:29:57;;;;;;;90.38;53.48;;;;;;;7.18;55.95;100393.59;115447;1200;103027;-80
2021/03/27 05:32:55;;;;;;;93.67;54.07;;;;;;;7.00;56.39;100391.25;115303;1200;103030;-80
2021/03/27 05:35:42;;;;;;;89.45;54.50;;;;;;;6.91;56.72;100371.52;115409;1200;101716;-81
2021/03/27 05:38:35;;;;;;;94.35;52.40;;;;;;;6.85;57.02;100388.91;115446;1198;102825;-81
2021/03/27 05:41:21;;;;;;;94.77;55.53;;;;;;;6.75;56.95;100384.73;115544;1196;103093;-80
2021/03/27 05:44:12;;;;;;;93.75;51.73;;;;;;;6.64;57.37;100372.80;115581;1200;103049;-80
2021/03/27 05:47:11;;;;;;;91.90;53.33;;;;;;;6.57;58.10;100383.25;115537;1199;103043;-81
2021/03/27 05:49:56;;;;;;;101.53;55.00;;;;;;;6.53;58.23;100400.58;115420;1199;103217;-80
2021/03/27 05:52:51;;;;;;;93.33;52.90;;;;;;;6.53;58.19;100407.50;115669;1198;103053;-81
2021/03/27 05:55:42;;;;;;;94.73;51.93;;;;;;;6.52;58.51;100411.82;115573;1200;103015;-81
2021/03/27 05:58:34;;;;;;;97.20;53.63;;;;;;;6.52;58.77;100411.82;115574;1199;103062;-80
2021/03/27 06:01:18;;;;;;;98.47;55.70;;;;;;;6.52;59.35;100406.64;115605;1199;103035;-80
2021/03/27 06:03:51;;;;;;;96.83;52.30;;;;;;;6.51;59.31;100404.92;115643;1199;103043;-81
2021/03/27 06:06:35;;;;;;;94.93;51.47;;;;;;;6.54;59.03;100393.66;115448;1197;103101;-80
2021/03/27 06:09:33;;;;;;;91.65;51.00;;;;;;;6.56;59.58;100397.09;115453;1196;103213;-80
2021/03/27 06:12:20;;;;;;;92.00;51.47;;;;;;;6.58;59.18;100390.14;115611;1199;102884;-80
2021/03/27 06:15:13;;;;;;;95.35;52.45;;;;;;;6.60;59.41;100385.80;115496;1202;103155;-78
2021/03/27 06:18:02;;;;;;;92.20;51.30;;;;;;;6.62;59.32;100379.70;115191;1203;102993;-79
2021/03/27 06:20:51;;;;;;;93.17;52.90;;;;;;;6.66;59.37;100389.17;115161;1202;103126;-80
2021/03/27 06:23:52;;;;;;;90.87;52.77;;;;;;;6.73;59.14;100383.89;115132;1202;103554;-80
2021/03/27 06:27:00;;;;;;;101.05;52.15;;;;;;;6.84;59.03;100351.77;115219;1201;103225;-80
2021/03/27 06:30:30;;;;;;;95.35;52.35;;;;;;;7.07;58.88;100368.69;115038;1204;103015;-80
2021/03/27 06:33:15;;;;;;;;;;;;;;;7.34;57.68;100356.99;114897;1213;103066;-80
2021/03/27 06:35:54;;;;;;;96.25;52.20;;;;;;;7.25;58.00;100387.41;114944;1209;103273;-80
2021/03/27 06:38:29;;;;;;;94.80;54.95;;;;;;;7.19;58.02;100382.33;114984;1206;103196;-79
2021/03/27 06:41:14;;;;;;;95.50;54.60;;;;;;;7.11;58.44;100362.56;114494;1206;103072;-79
2021/03/27 06:43:47;;;;;;;94.30;53.90;;;;;;;7.05;58.26;100358.34;114854;1206;103133;-80
2021/03/27 06:46:51;;;;;;;99.45;56.20;;;;;;;7.04;58.75;100353.19;114894;1206;103149;-79
2021/03/27 06:49:51;;;;;;;95.00;55.10;;;;;;;7.00;58.85;100349.77;114525;1206;103050;-79
2021/03/27 06:52:55;;;;;;;101.00;55.00;;;;;;;6.98;59.08;100354.12;114812;1203;103181;-79
2021/03/27 06:55:30;;;;;;;96.63;53.10;;;;;;;6.97;59.18;100347.22;114969;1205;103056;-80
2021/03/27 06:58:22;;;;;;;97.10;54.50;;;;;;;7.00;59.03;100367.91;115107;1203;103129;-81
2021/03/27 07:01:28;;;;;;;95.60;54.70;;;;;;;7.01;59.15;100364.47;114975;1203;101996;-80
2021/03/27 07:04:27;;;;;;;90.40;52.43;;;;;;;7.08;58.88;100340.14;115047;1202;103043;-80
2021/03/27 07:07:03;;;;;;;95.10;54.50;;;;;;;7.14;58.47;100347.81;115482;1199;103031;-80
2021/03/27 07:09:58;;;;;;;90.22;52.00;;;;;;;7.19;58.43;100366.77;115573;1198;101372;-80
2021/03/27 07:12:59;;;;;;;89.50;52.00;;;;;;;7.30;58.18;100352.74;115568;1199;103037;-81
2021/03/27 07:15:48;;;;;;;96.80;53.80;;;;;;;7.37;57.93;100354.38;115600;1199;102982;-80
2021/03/27 07:18:41;;;;;;;99.57;54.13;;;;;;;7.45;58.03;100355.94;115759;1198;102986;-80
2021/03/27 07:21:34;;;;;;;94.30;53.75;;;;;;;7.52;58.03;100351.48;115519;1196;101835;-81
2021/03/27 07:24:36;;;;;;;91.67;52.97;;;;;;;7.61;58.09;100342.69;115633;1199;102813;-80
2021/03/27 07:27:15;;;;;;;90.80;53.07;;;;;;;7.75;57.72;100344.14;115775;1197;102996;-80
2021/03/27 07:30:16;;;;;;;101.80;56.43;;;;;;;7.90;57.57;100337.80;115545;1198;103024;-80
2021/03/27 07:32:56;;;;;;;90.50;55.43;;;;;;;8.09;56.90;100353.88;115602;1198;103005;-79
2021/03/27 07:35:58;;;;;;;99.00;56.30;;;;;;;8.41;56.00;100351.47;115557;1199;103145;-80
2021/03/27 07:38:47;;;;;;;93.37;53.47;;;;;;;8.65;55.54;100344.89;115536;1199;103034;-80
2021/03/27 07:41:36;;;;;;;96.53;55.40;;;;;;;8.75;55.56;100350.72;115534;1197;103018;-80
2021/03/27 07:44:12;;;;;;;93.85;53.80;;;;;;;8.85;55.26;100328.83;115705;1200;103446;-81
2021/03/27 07:47:01;;;;;;;91.80;54.63;;;;;;;9.01;55.18;100318.91;115514;1199;102842;-81
2021/03/27 07:49:54;;;;;;;90.53;54.13;;;;;;;9.19;55.13;100317.59;115553;1195;103152;-80
2021/03/27 07:52:24;;;;;;;94.73;54.73;;;;;;;9.35;54.28;100324.97;115591;1196;101179;-81
2021/03/27 07:55:28;;;;;;;93.13;55.00;;;;;;;9.49;54.08;100335.00;115595;1198;103032;-81
2021/03/27 07:58:43;;;;;;;91.97;54.77;;;;;;;10.12;53.18;100325.47;115559;1198;103188;-80
2021/03/27 08:01:37;;;;;;;91.60;56.40;;;;;;;10.73;52.01;100314.06;115303;1202;103300;-81
2021/03/27 08:04:41;;;;;;;92.93;55.03;;;;;;;11.06;51.15;100313.88;115410;1200;103046;-80
2021/03/27 08:07:31;;;;;;;88.30;55.20;;;;;;;11.30;49.99;100304.36;115345;1200;103082;-81
2021/03/27 08:10:14;;;;;;;89.10;54.40;;;;;;;11.34;50.25;100313.83;115332;1202;103035;-80
2021/03/27 08:12:58;;;;;;;87.40;53.87;;;;;;;11.43;50.53;100310.88;115319;1201;101706;-81
2021/03/27 08:15:47;;;;;;;86.33;53.80;;;;;;;11.84;50.01;100309.44;115292;1202;103165;-80
2021/03/27 08:18:26;;;;;;;90.70;55.20;;;;;;;12.86;47.71;100315.13;115291;1201;102822;-81
2021/03/27 08:21:11;;;;;;;85.70;53.83;;;;;;;13.76;46.05;100314.81;115341;1201;103175;-82
2021/03/27 08:24:08;;;;;;;84.60;51.75;;;;;;;14.99;44.36;100300.32;115457;1201;103076;-81
2021/03/27 08:26:53;;;;;;;79.80;54.40;;;;;;;16.10;40.71;100298.13;115319;1203;103011;-80
2021/03/27 08:29:55;;;;;;;78.63;52.03;;;;;;;17.05;40.42;100280.48;115500;1202;103009;-80
2021/03/27 08:33:00;;;;;;;77.93;52.70;;;;;;;17.86;37.24;100294.98;115683;1199;103133;-80
2021/03/27 08:35:38;;;;;;;74.60;50.60;;;;;;;18.61;38.59;100272.59;115645;1200;103011;-81
2021/03/27 08:38:30;;;;;;;73.80;49.57;;;;;;;19.33;37.81;100273.97;115718;1199;101962;-80
2021/03/27 08:41:03;;;;;;;75.60;48.00;;;;;;;19.91;36.03;100282.35;115610;1199;103031;-81
2021/03/27 08:43:49;;;;;;;71.73;49.73;;;;;;;20.24;32.90;100284.42;115611;1198;103181;-80
2021/03/27 08:46:57;;;;;;;66.50;50.20;;;;;;;20.32;32.63;100271.48;115697;1196;103049;-80
2021/03/27 08:49:24;;;;;;;;;;;;;;;20.44;32.87;100252.06;115738;1205;101807;-80
2021/03/27 08:52:10;;;;;;;;;;;;;;;20.39;31.46;100258.63;116001;1204;102967;-80
2021/03/27 08:55:14;;;;;;;65.03;46.97;;;;;;;20.25;32.75;100251.67;115691;1199;101948;-80
2021/03/27 08:57:44;;;;;;;68.33;44.23;;;;;;;20.40;33.11;100242.63;115743;1199;102912;-80
2021/03/27 09:00:11;;;;;;;60.50;44.10;;;;;;;20.71;32.43;100237.76;115619;1199;103123;-79
2021/03/27 09:03:26;;;;;;;60.00;42.97;;;;;;;20.94;32.51;100238.69;115471;1197;103094;-80
2021/03/27 09:05:59;;;;;;;63.20;43.60;;;;;;;21.08;32.30;100235.84;115801;1198;103084;-83
2021/03/27 09:08:27;;;;;;;62.27;42.80;;;;;;;21.20;31.37;100242.88;115666;1196;101323;-83
2021/03/27 09:11:06;;;;;;;54.83;37.27;;;;;;;21.27;30.81;100230.01;115813;1199;103018;-81
2021/03/27 09:13:48;;;;;;;50.43;37.57;;;;;;;21.41;30.17;100235.09;115660;1198;102982;-79
2021/03/27 09:16:22;;;;;;;59.27;39.67;;;;;;;21.51;31.09;100225.45;115393;1199;103075;-80
2021/03/27 09:19:29;;;;;;;60.37;38.87;;;;;;;21.59;29.93;100243.44;115475;1198;103053;-81
2021/03/27 09:22:15;;;;;;;52.03;36.70;;;;;;;21.52;30.25;100226.29;115629;1199;102967;-81
2021/03/27 09:24:42;;;;;;;49.57;34.60;;;;;;;21.50;29.46;100228.22;115641;1198;102942;-80
2021/03/27 09:27:31;;;;;;;49.65;35.58;;;;;;;21.48;30.72;100225.69;115507;1199;103478;-80
2021/03/27 09:30:14;;;;;;;49.63;35.93;;;;;;;21.73;30.38;100215.83;115646;1199;102929;-80
2021/03/27 09:33:10;;;;;;;52.77;35.63;;;;;;;21.73;29.32;100211.36;115646;1197;103133;-82
2021/03/27 09:35:51;;;;;;;49.63;35.13;;;;;;;21.77;29.24;100211.95;115662;1196;103111;-80
2021/03/27 09:38:55;;;;;;;58.07;35.57;;;;;;;21.82;29.69;100207.95;115821;1196;102915;-80
2021/03/27 09:41:44;;;;;;;46.90;33.23;;;;;;;21.90;29.19;100216.17;115646;1199;102950;-81
2021/03/27 09:44:42;;;;;;;46.47;32.93;;;;;;;21.76;29.02;100197.00;115896;1196;102912;-81
2021/03/27 09:47:29;;;;;;;54.20;35.10;;;;;;;21.68;29.38;100217.00;115668;1196;103040;-81
2021/03/27 09:50:34;;;;;;;48.07;33.33;;;;;;;21.77;28.59;100209.30;115608;1198;103140;-81
2021/03/27 09:53:36;;;;;;;47.77;34.47;;;;;;;21.60;28.58;100211.47;115569;1199;103065;-82
2021/03/27 09:56:22;;;;;;;51.50;34.33;;;;;;;21.58;29.67;100193.98;115689;1198;103442;-81
2021/03/27 09:59:17;;;;;;;50.50;35.47;;;;;;;21.66;28.51;100205.67;115615;1196;103528;-81
2021/03/27 10:01:53;;;;;;;48.50;31.03;;;;;;;21.56;28.90;100183.49;115591;1198;103200;-82
2021/03/27 10:04:52;;;;;;;49.83;30.30;;;;;;;21.54;28.61;100179.24;115688;1196;101889;-82
2021/03/27 10:07:48;;;;;;;48.20;31.50;;;;;;;21.44;28.31;100178.30;115599;1198;101628;-81
2021/03/27 10:10:45;;;;;;;43.60;29.03;;;;;;;21.37;29.33;100191.20;115868;1196;103040;-81
2021/03/27 10:13:41;;;;;;;43.60;30.00;;;;;;;21.52;28.65;100183.83;115653;1199;103185;-82
2021/03/27 10:16:21;;;;;;;45.95;30.15;;;;;;;21.53;27.91;100183.70;115849;1196;103056;-82
2021/03/27 10:19:05;;;;;;;47.10;29.70;;;;;;;21.25;28.44;100186.84;115568;1196;103017;-81
2021/03/27 10:22:10;;;;;;;45.77;28.70;;;;;;;21.07;29.13;100163.40;115583;1197;102826;-81
2021/03/27 10:24:49;;;;;;;45.43;27.83;;;;;;;20.89;28.72;100180.72;115674;1198;103123;-81
2021/03/27 10:27:43;;;;;;;45.40;26.87;;;;;;;20.86;28.42;100212.77;115702;1199;103002;-83
2021/03/27 10:30:35;;;;;;;38.13;24.73;;;;;;;20.63;27.69;100201.21;115468;1199;103076;-81
2021/03/27 10:33:10;;;;;;;40.40;25.07;;;;;;;20.55;28.70;100166.51;115629;1196;103040;-81
2021/03/27 10:35:44;;;;;;;42.53;25.97;;;;;;;20.53;28.21;100194.08;115637;1199;103040;-82
2021/03/27 10:38:33;;;;;;;43.80;26.43;;;;;;;20.44;28.55;100172.59;115634;1197;103006;-81
2021/03/27 10:41:06;;;;;;;41.37;26.60;;;;;;;20.28;29.02;100184.39;115679;1197;103075;-81
2021/03/27 10:43:48;;;;;;;39.73;26.63;;;;;;;20.18;29.48;100168.35;115712;1197;102929;-82
2021/03/27 10:46:40;;;;;;;36.60;25.70;;;;;;;20.07;29.09;100185.01;115588;1199;103538;-81
2021/03/27 10:49:10;;;;;;;43.47;27.60;;;;;;;20.01;30.48;100158.98;115686;1196;103070;-81
2021/03/27 10:52:14;;;;;;;40.17;26.47;;;;;;;20.06;30.20;100148.05;115625;1196;103006;-82
2021/03/27 10:55:02;;;;;;;40.07;26.27;;;;;;;20.01;30.25;100132.52;115642;1198;102826;-81
2021/03/27 10:57:59;;;;;;;46.17;28.00;;;;;;;20.04;29.74;100128.80;115586;1199;103100;-82
2021/03/27 11:00:58;;;;;;;39.63;25.85;;;;;;;19.95;30.48;100118.89;115640;1199;103053;-81
2021/03/27 11:03:34;;;;;;;38.30;24.55;;;;;;;19.83;30.14;100153.22;115550;1197;103181;-81
2021/03/27 11:06:43;;;;;;;42.85;26.20;;;;;;;19.66;30.86;100120.98;115624;1199;102886;-81
2021/03/27 11:09:59;;;;;;;42.07;26.73;;;;;;;19.53;29.98;100135.05;115708;1198;103024;-81
2021/03/27 11:12:47;;;;;;;39.93;23.83;;;;;;;19.38;29.85;100145.86;115507;1202;103123;-81
2021/03/27 11:15:28;;;;;;;38.75;23.35;;;;;;;19.24;29.64;100123.05;115421;1202;102995;-82
2021/03/27 11:17:58;;;;;;;35.93;22.77;;;;;;;19.16;29.70;100128.01;115367;1202;103095;-81
2021/03/27 11:20:44;;;;;;;37.87;23.23;;;;;;;19.11;30.26;100106.34;115390;1203;103162;-81
2021/03/27 11:23:30;;;;;;;35.80;22.90;;;;;;;19.18;29.89;100118.17;115351;1203;102983;-81
2021/03/27 11:26:25;;;;;;;36.47;22.00;;;;;;;19.20;30.54;100117.11;115502;1201;103097;-81
2021/03/27 11:29:06;;;;;;;34.73;23.13;;;;;;;19.23;30.10;100090.48;115570;1202;103111;-81
2021/03/27 11:31:46;;;;;;;37.87;21.93;;;;;;;19.19;30.12;100107.48;115274;1202;103133;-81
2021/03/27 11:34:26;;;;;;;38.35;23.10;;;;;;;19.23;30.07;100101.05;115298;1203;103212;-82
2021/03/27 11:37:47;;;;;;;32.30;22.20;;;;;;;19.24;29.41;100115.96;115295;1202;101993;-81
2021/03/27 11:40:29;;;;;;;36.47;22.40;;;;;;;19.12;30.28;100098.30;115383;1202;103258;-81
2021/03/27 11:43:05;;;;;;;36.97;23.57;;;;;;;19.11;29.51;100117.77;115389;1202;103095;-81
2021/03/27 11:45:50;;;;;;;34.13;22.00;;;;;;;18.99;29.34;100095.66;115328;1201;103053;-82
2021/03/27 11:48:40;;;;;;;38.40;23.45;;;;;;;18.98;29.26;100111.63;115377;1202;103076;-81
2021/03/27 11:51:28;;;;;;;37.53;23.43;;;;;;;18.98;29.80;100101.05;115596;1199;103031;-81
2021/03/27 11:53:55;;;;;;;36.95;24.80;;;;;;;18.95;29.46;100080.13;115615;1199;103028;-81
2021/03/27 11:56:41;;;;;;;37.90;23.83;;;;;;;18.96;29.89;100110.89;115735;1199;103076;-80
2021/03/27 11:59:42;;;;;;;36.37;22.83;;;;;;;18.89;29.98;100096.42;115608;1199;102994;-82
2021/03/27 12:02:29;;;;;;;34.70;22.03;;;;;;;18.95;29.67;100091.55;115597;1198;102980;-82
2021/03/27 12:05:25;;;;;;;35.23;21.93;;;;;;;19.02;30.21;100073.45;115655;1199;103139;-81
2021/03/27 12:08:04;;;;;;;34.70;21.45;;;;;;;19.03;29.39;100072.53;115622;1199;103053;-82
2021/03/27 12:10:40;;;;;;;34.57;22.10;;;;;;;19.06;29.98;100067.02;115850;1196;103141;-81
2021/03/27 12:13:29;;;;;;;38.60;22.25;;;;;;;19.01;29.38;100075.25;115593;1199;103143;-81
2021/03/27 12:16:22;;;;;;;32.25;20.10;;;;;;;19.08;29.59;100064.27;115579;1199;103036;-82
2021/03/27 12:19:19;;;;;;;33.10;20.17;;;;;;;19.07;29.43;100079.28;115810;1198;103024;-81
2021/03/27 12:21:49;;;;;;;32.50;20.40;;;;;;;18.95;29.67;100103.91;115829;1196;103165;-81
2021/03/27 12:24:44;;;;;;;34.07;21.33;;;;;;;18.86;29.81;100083.42;115791;1199;103139;-80
2021/03/27 12:27:30;;;;;;;30.97;19.83;;;;;;;18.88;29.53;100084.16;115646;1199;103011;-81